sensor_id;sensor_type;location;lat;lon;timestamp;temperature;humidity
10538;DHT22;5317;49.048;8.468;2023-02-07T00:02:20;7.70;59.60
10538;DHT22;5317;49.048;8.468;2023-02-07T00:04:47;7.70;59.60
10538;DHT22;5317;49.048;8.468;2023-02-07T00:07:14;7.70;59.60
10538;DHT22;5317;49.048;8.468;2023-02-07T00:09:41;7.70;60.30
10538;DHT22;5317;49.048;8.468;2023-02-07T00:12:08;7.70;59.80
10538;DHT22;5317;49.048;8.468;2023-02-07T00:14:34;7.70;59.90
10538;DHT22;5317;49.048;8.468;2023-02-07T00:17:01;7.70;59.90
10538;DHT22;5317;49.048;8.468;2023-02-07T00:19:29;7.60;59.90
10538;DHT22;5317;49.048;8.468;2023-02-07T00:21:56;7.60;60.00
10538;DHT22;5317;49.048;8.468;2023-02-07T00:24:23;7.50;60.00
10538;DHT22;5317;49.048;8.468;2023-02-07T00:26:50;7.50;60.00
10538;DHT22;5317;49.048;8.468;2023-02-07T00:29:17;7.50;60.00
10538;DHT22;5317;49.048;8.468;2023-02-07T00:31:44;7.50;59.90
10538;DHT22;5317;49.048;8.468;2023-02-07T00:34:13;7.50;59.80
10538;DHT22;5317;49.048;8.468;2023-02-07T00:36:41;7.60;59.90
10538;DHT22;5317;49.048;8.468;2023-02-07T00:39:12;7.60;59.80
10538;DHT22;5317;49.048;8.468;2023-02-07T00:41:39;7.60;59.70
10538;DHT22;5317;49.048;8.468;2023-02-07T00:44:07;7.60;59.60
10538;DHT22;5317;49.048;8.468;2023-02-07T00:46:34;7.60;59.50
10538;DHT22;5317;49.048;8.468;2023-02-07T00:49:02;7.60;59.40
10538;DHT22;5317;49.048;8.468;2023-02-07T00:51:29;7.60;59.30
10538;DHT22;5317;49.048;8.468;2023-02-07T00:53:58;7.60;59.10
10538;DHT22;5317;49.048;8.468;2023-02-07T00:56:26;7.50;59.00
10538;DHT22;5317;49.048;8.468;2023-02-07T00:58:55;7.50;59.10
10538;DHT22;5317;49.048;8.468;2023-02-07T01:01:23;7.50;59.10
10538;DHT22;5317;49.048;8.468;2023-02-07T01:03:51;7.40;59.00
10538;DHT22;5317;49.048;8.468;2023-02-07T01:06:19;7.40;58.90
10538;DHT22;5317;49.048;8.468;2023-02-07T01:08:46;7.40;58.80
10538;DHT22;5317;49.048;8.468;2023-02-07T01:11:15;7.40;58.70
10538;DHT22;5317;49.048;8.468;2023-02-07T01:13:43;7.40;58.50
10538;DHT22;5317;49.048;8.468;2023-02-07T01:16:19;7.30;58.30
10538;DHT22;5317;49.048;8.468;2023-02-07T01:18:46;7.30;58.20
10538;DHT22;5317;49.048;8.468;2023-02-07T01:21:15;7.30;58.30
10538;DHT22;5317;49.048;8.468;2023-02-07T01:23:42;7.30;58.30
10538;DHT22;5317;49.048;8.468;2023-02-07T01:26:09;7.20;58.10
10538;DHT22;5317;49.048;8.468;2023-02-07T01:28:37;7.20;58.00
10538;DHT22;5317;49.048;8.468;2023-02-07T01:31:06;7.20;57.80
10538;DHT22;5317;49.048;8.468;2023-02-07T01:33:34;7.20;57.60
10538;DHT22;5317;49.048;8.468;2023-02-07T01:36:05;7.20;57.70
10538;DHT22;5317;49.048;8.468;2023-02-07T01:38:33;7.20;57.40
10538;DHT22;5317;49.048;8.468;2023-02-07T01:41:00;7.20;57.40
10538;DHT22;5317;49.048;8.468;2023-02-07T01:43:27;7.20;57.80
10538;DHT22;5317;49.048;8.468;2023-02-07T01:45:55;7.20;56.80
10538;DHT22;5317;49.048;8.468;2023-02-07T01:48:24;7.10;56.80
10538;DHT22;5317;49.048;8.468;2023-02-07T01:50:54;7.10;56.70
10538;DHT22;5317;49.048;8.468;2023-02-07T01:53:23;7.10;56.50
10538;DHT22;5317;49.048;8.468;2023-02-07T01:55:53;7.10;56.20
10538;DHT22;5317;49.048;8.468;2023-02-07T01:58:21;7.10;56.20
10538;DHT22;5317;49.048;8.468;2023-02-07T02:00:49;7.10;55.90
10538;DHT22;5317;49.048;8.468;2023-02-07T02:03:18;7.20;55.90
10538;DHT22;5317;49.048;8.468;2023-02-07T02:05:45;7.20;55.80
10538;DHT22;5317;49.048;8.468;2023-02-07T02:08:12;7.20;55.80
10538;DHT22;5317;49.048;8.468;2023-02-07T02:10:56;7.20;55.50
10538;DHT22;5317;49.048;8.468;2023-02-07T02:13:31;7.20;55.40
10538;DHT22;5317;49.048;8.468;2023-02-07T02:16:06;7.10;55.20
10538;DHT22;5317;49.048;8.468;2023-02-07T02:18:44;7.10;55.30
10538;DHT22;5317;49.048;8.468;2023-02-07T02:27:55;7.00;55.40
10538;DHT22;5317;49.048;8.468;2023-02-07T02:31:00;7.00;55.20
10538;DHT22;5317;49.048;8.468;2023-02-07T02:33:38;7.00;55.30
10538;DHT22;5317;49.048;8.468;2023-02-07T02:36:12;6.90;55.00
10538;DHT22;5317;49.048;8.468;2023-02-07T02:38:47;6.90;55.30
10538;DHT22;5317;49.048;8.468;2023-02-07T02:41:21;6.90;55.30
10538;DHT22;5317;49.048;8.468;2023-02-07T02:43:52;6.80;55.10
10538;DHT22;5317;49.048;8.468;2023-02-07T02:46:21;6.80;55.20
10538;DHT22;5317;49.048;8.468;2023-02-07T02:48:52;6.80;55.60
10538;DHT22;5317;49.048;8.468;2023-02-07T02:51:19;6.70;56.30
10538;DHT22;5317;49.048;8.468;2023-02-07T02:53:53;6.70;55.80
10538;DHT22;5317;49.048;8.468;2023-02-07T02:56:41;6.70;55.70
10538;DHT22;5317;49.048;8.468;2023-02-07T02:59:30;6.60;55.60
10538;DHT22;5317;49.048;8.468;2023-02-07T03:02:10;6.60;55.60
10538;DHT22;5317;49.048;8.468;2023-02-07T03:04:54;6.50;55.80
10538;DHT22;5317;49.048;8.468;2023-02-07T03:07:37;6.50;55.80
10538;DHT22;5317;49.048;8.468;2023-02-07T03:10:09;6.50;55.90
10538;DHT22;5317;49.048;8.468;2023-02-07T03:12:42;6.50;55.90
10538;DHT22;5317;49.048;8.468;2023-02-07T03:15:17;6.50;55.80
10538;DHT22;5317;49.048;8.468;2023-02-07T03:17:52;6.40;55.80
10538;DHT22;5317;49.048;8.468;2023-02-07T03:20:25;6.40;56.00
10538;DHT22;5317;49.048;8.468;2023-02-07T03:22:56;6.40;56.00
10538;DHT22;5317;49.048;8.468;2023-02-07T03:25:25;6.40;56.00
10538;DHT22;5317;49.048;8.468;2023-02-07T03:27:54;6.40;56.30
10538;DHT22;5317;49.048;8.468;2023-02-07T03:30:23;6.30;55.90
10538;DHT22;5317;49.048;8.468;2023-02-07T03:32:58;6.30;56.00
10538;DHT22;5317;49.048;8.468;2023-02-07T03:35:32;6.30;56.30
10538;DHT22;5317;49.048;8.468;2023-02-07T03:38:01;6.20;56.20
10538;DHT22;5317;49.048;8.468;2023-02-07T03:40:33;6.30;56.30
10538;DHT22;5317;49.048;8.468;2023-02-07T03:43:03;6.30;56.80
10538;DHT22;5317;49.048;8.468;2023-02-07T03:45:32;6.30;56.20
10538;DHT22;5317;49.048;8.468;2023-02-07T03:47:59;6.20;56.10
10538;DHT22;5317;49.048;8.468;2023-02-07T03:50:26;6.20;56.00
10538;DHT22;5317;49.048;8.468;2023-02-07T03:52:54;6.20;56.00
10538;DHT22;5317;49.048;8.468;2023-02-07T03:55:21;6.20;56.10
10538;DHT22;5317;49.048;8.468;2023-02-07T03:57:48;6.20;56.10
10538;DHT22;5317;49.048;8.468;2023-02-07T04:00:15;6.20;56.10
10538;DHT22;5317;49.048;8.468;2023-02-07T04:02:42;6.20;56.20
10538;DHT22;5317;49.048;8.468;2023-02-07T04:05:09;6.20;56.10
10538;DHT22;5317;49.048;8.468;2023-02-07T04:07:36;6.20;55.90
10538;DHT22;5317;49.048;8.468;2023-02-07T04:10:05;6.20;55.90
10538;DHT22;5317;49.048;8.468;2023-02-07T04:12:33;6.20;55.50
10538;DHT22;5317;49.048;8.468;2023-02-07T04:15:00;6.20;55.50
10538;DHT22;5317;49.048;8.468;2023-02-07T04:17:27;6.20;55.40
10538;DHT22;5317;49.048;8.468;2023-02-07T04:19:54;6.20;55.20
10538;DHT22;5317;49.048;8.468;2023-02-07T04:22:21;6.10;54.90
10538;DHT22;5317;49.048;8.468;2023-02-07T04:24:48;6.10;54.80
10538;DHT22;5317;49.048;8.468;2023-02-07T04:27:16;6.10;54.40
10538;DHT22;5317;49.048;8.468;2023-02-07T04:29:43;6.10;54.30
10538;DHT22;5317;49.048;8.468;2023-02-07T04:32:10;6.10;54.40
10538;DHT22;5317;49.048;8.468;2023-02-07T04:34:37;6.10;54.90
10538;DHT22;5317;49.048;8.468;2023-02-07T04:37:04;6.10;54.20
10538;DHT22;5317;49.048;8.468;2023-02-07T04:39:31;6.10;54.20
10538;DHT22;5317;49.048;8.468;2023-02-07T04:41:57;6.10;54.20
10538;DHT22;5317;49.048;8.468;2023-02-07T04:44:26;6.10;54.10
10538;DHT22;5317;49.048;8.468;2023-02-07T04:46:52;6.10;54.10
10538;DHT22;5317;49.048;8.468;2023-02-07T04:49:19;6.10;54.10
10538;DHT22;5317;49.048;8.468;2023-02-07T04:51:46;6.10;54.00
10538;DHT22;5317;49.048;8.468;2023-02-07T04:54:13;6.10;54.00
10538;DHT22;5317;49.048;8.468;2023-02-07T04:56:40;6.00;53.90
10538;DHT22;5317;49.048;8.468;2023-02-07T04:59:07;6.10;53.90
10538;DHT22;5317;49.048;8.468;2023-02-07T05:01:35;6.10;53.80
10538;DHT22;5317;49.048;8.468;2023-02-07T05:04:01;6.00;53.90
10538;DHT22;5317;49.048;8.468;2023-02-07T05:06:29;6.00;53.80
10538;DHT22;5317;49.048;8.468;2023-02-07T05:08:55;6.00;53.90
10538;DHT22;5317;49.048;8.468;2023-02-07T05:11:22;6.00;53.80
10538;DHT22;5317;49.048;8.468;2023-02-07T05:13:49;5.90;53.80
10538;DHT22;5317;49.048;8.468;2023-02-07T05:16:16;5.90;53.80
10538;DHT22;5317;49.048;8.468;2023-02-07T05:18:44;5.90;53.80
10538;DHT22;5317;49.048;8.468;2023-02-07T05:21:11;5.90;53.90
10538;DHT22;5317;49.048;8.468;2023-02-07T05:23:38;5.90;54.40
10538;DHT22;5317;49.048;8.468;2023-02-07T05:26:05;5.90;53.90
10538;DHT22;5317;49.048;8.468;2023-02-07T05:28:31;5.90;53.70
10538;DHT22;5317;49.048;8.468;2023-02-07T05:30:58;5.90;53.70
10538;DHT22;5317;49.048;8.468;2023-02-07T05:33:25;5.80;53.70
10538;DHT22;5317;49.048;8.468;2023-02-07T05:35:53;5.80;53.70
10538;DHT22;5317;49.048;8.468;2023-02-07T05:38:19;5.90;53.90
10538;DHT22;5317;49.048;8.468;2023-02-07T05:40:47;5.80;53.90
10538;DHT22;5317;49.048;8.468;2023-02-07T05:43:14;5.80;54.00
10538;DHT22;5317;49.048;8.468;2023-02-07T05:45:41;5.70;54.20
10538;DHT22;5317;49.048;8.468;2023-02-07T05:48:10;5.70;54.20
10538;DHT22;5317;49.048;8.468;2023-02-07T05:50:37;5.70;54.40
10538;DHT22;5317;49.048;8.468;2023-02-07T05:53:05;5.60;54.60
10538;DHT22;5317;49.048;8.468;2023-02-07T05:55:32;5.50;54.70
10538;DHT22;5317;49.048;8.468;2023-02-07T05:57:59;5.50;54.80
10538;DHT22;5317;49.048;8.468;2023-02-07T06:00:26;5.50;55.00
10538;DHT22;5317;49.048;8.468;2023-02-07T06:02:53;5.40;55.20
10538;DHT22;5317;49.048;8.468;2023-02-07T06:05:20;5.50;55.40
10538;DHT22;5317;49.048;8.468;2023-02-07T06:07:49;5.40;55.50
10538;DHT22;5317;49.048;8.468;2023-02-07T06:10:17;5.40;55.60
10538;DHT22;5317;49.048;8.468;2023-02-07T06:12:44;5.30;55.70
10538;DHT22;5317;49.048;8.468;2023-02-07T06:15:12;5.30;55.90
10538;DHT22;5317;49.048;8.468;2023-02-07T06:17:39;5.30;55.90
10538;DHT22;5317;49.048;8.468;2023-02-07T06:20:07;5.30;55.80
10538;DHT22;5317;49.048;8.468;2023-02-07T06:22:34;5.40;55.80
10538;DHT22;5317;49.048;8.468;2023-02-07T06:25:00;5.40;55.80
10538;DHT22;5317;49.048;8.468;2023-02-07T06:27:29;5.40;55.80
10538;DHT22;5317;49.048;8.468;2023-02-07T06:29:55;5.40;56.40
10538;DHT22;5317;49.048;8.468;2023-02-07T06:32:22;5.40;56.10
10538;DHT22;5317;49.048;8.468;2023-02-07T06:34:49;5.20;55.60
10538;DHT22;5317;49.048;8.468;2023-02-07T06:37:16;5.30;55.70
10538;DHT22;5317;49.048;8.468;2023-02-07T06:39:43;5.20;55.80
10538;DHT22;5317;49.048;8.468;2023-02-07T06:42:10;5.20;56.50
10538;DHT22;5317;49.048;8.468;2023-02-07T06:44:38;5.20;55.90
10538;DHT22;5317;49.048;8.468;2023-02-07T06:47:06;5.20;56.10
10538;DHT22;5317;49.048;8.468;2023-02-07T06:49:33;5.20;56.10
10538;DHT22;5317;49.048;8.468;2023-02-07T06:52:00;5.20;56.00
10538;DHT22;5317;49.048;8.468;2023-02-07T06:54:27;5.20;56.10
10538;DHT22;5317;49.048;8.468;2023-02-07T06:56:53;5.20;56.20
10538;DHT22;5317;49.048;8.468;2023-02-07T06:59:20;5.10;56.20
10538;DHT22;5317;49.048;8.468;2023-02-07T07:01:48;5.20;56.40
10538;DHT22;5317;49.048;8.468;2023-02-07T07:04:15;5.20;56.40
10538;DHT22;5317;49.048;8.468;2023-02-07T07:06:43;5.20;56.40
10538;DHT22;5317;49.048;8.468;2023-02-07T07:09:10;5.00;56.00
10538;DHT22;5317;49.048;8.468;2023-02-07T07:11:38;5.20;56.20
10538;DHT22;5317;49.048;8.468;2023-02-07T07:14:08;5.10;56.40
10538;DHT22;5317;49.048;8.468;2023-02-07T07:16:35;5.20;56.50
10538;DHT22;5317;49.048;8.468;2023-02-07T07:19:03;5.10;56.40
10538;DHT22;5317;49.048;8.468;2023-02-07T07:21:30;5.00;56.30
10538;DHT22;5317;49.048;8.468;2023-02-07T07:23:57;5.10;56.20
10538;DHT22;5317;49.048;8.468;2023-02-07T07:26:24;5.20;56.10
10538;DHT22;5317;49.048;8.468;2023-02-07T07:28:51;5.30;56.20
10538;DHT22;5317;49.048;8.468;2023-02-07T07:31:22;5.20;56.20
10538;DHT22;5317;49.048;8.468;2023-02-07T07:33:49;5.30;56.20
10538;DHT22;5317;49.048;8.468;2023-02-07T07:36:18;5.30;56.00
10538;DHT22;5317;49.048;8.468;2023-02-07T07:38:45;5.30;55.90
10538;DHT22;5317;49.048;8.468;2023-02-07T07:41:12;5.30;55.80
10538;DHT22;5317;49.048;8.468;2023-02-07T07:43:39;5.40;55.80
10538;DHT22;5317;49.048;8.468;2023-02-07T07:46:06;5.40;55.80
10538;DHT22;5317;49.048;8.468;2023-02-07T07:48:33;5.40;55.60
10538;DHT22;5317;49.048;8.468;2023-02-07T07:51:00;5.50;55.70
10538;DHT22;5317;49.048;8.468;2023-02-07T07:53:28;5.50;55.50
10538;DHT22;5317;49.048;8.468;2023-02-07T07:55:56;5.70;55.60
10538;DHT22;5317;49.048;8.468;2023-02-07T07:58:26;5.60;55.40
10538;DHT22;5317;49.048;8.468;2023-02-07T08:00:53;5.70;55.40
10538;DHT22;5317;49.048;8.468;2023-02-07T08:03:21;5.80;55.20
10538;DHT22;5317;49.048;8.468;2023-02-07T08:05:49;5.80;55.10
10538;DHT22;5317;49.048;8.468;2023-02-07T08:08:16;5.90;54.60
10538;DHT22;5317;49.048;8.468;2023-02-07T08:10:46;5.90;54.50
10538;DHT22;5317;49.048;8.468;2023-02-07T08:13:14;6.10;54.40
10538;DHT22;5317;49.048;8.468;2023-02-07T08:15:41;6.20;54.20
10538;DHT22;5317;49.048;8.468;2023-02-07T08:18:08;6.20;54.00
10538;DHT22;5317;49.048;8.468;2023-02-07T08:20:35;6.30;53.90
10538;DHT22;5317;49.048;8.468;2023-02-07T08:23:02;6.40;53.70
10538;DHT22;5317;49.048;8.468;2023-02-07T08:25:35;6.40;53.10
10538;DHT22;5317;49.048;8.468;2023-02-07T08:28:03;6.50;53.00
10538;DHT22;5317;49.048;8.468;2023-02-07T08:30:30;6.60;53.10
10538;DHT22;5317;49.048;8.468;2023-02-07T08:32:57;6.70;52.70
10538;DHT22;5317;49.048;8.468;2023-02-07T08:35:24;6.70;52.30
10538;DHT22;5317;49.048;8.468;2023-02-07T08:37:51;6.80;52.30
10538;DHT22;5317;49.048;8.468;2023-02-07T08:40:20;6.80;52.00
10538;DHT22;5317;49.048;8.468;2023-02-07T08:42:47;6.90;51.70
10538;DHT22;5317;49.048;8.468;2023-02-07T08:45:16;6.90;51.70
10538;DHT22;5317;49.048;8.468;2023-02-07T08:47:44;7.00;51.60
10538;DHT22;5317;49.048;8.468;2023-02-07T08:50:12;7.10;51.30
10538;DHT22;5317;49.048;8.468;2023-02-07T08:52:40;7.10;50.80
10538;DHT22;5317;49.048;8.468;2023-02-07T08:55:07;7.20;51.00
10538;DHT22;5317;49.048;8.468;2023-02-07T08:57:34;7.30;50.70
10538;DHT22;5317;49.048;8.468;2023-02-07T09:00:03;7.30;50.30
10538;DHT22;5317;49.048;8.468;2023-02-07T09:02:31;7.30;50.30
10538;DHT22;5317;49.048;8.468;2023-02-07T09:04:58;7.40;49.80
10538;DHT22;5317;49.048;8.468;2023-02-07T09:07:25;7.50;49.70
10538;DHT22;5317;49.048;8.468;2023-02-07T09:09:52;7.60;49.60
10538;DHT22;5317;49.048;8.468;2023-02-07T09:12:19;7.60;49.00
10538;DHT22;5317;49.048;8.468;2023-02-07T09:14:46;7.70;49.10
10538;DHT22;5317;49.048;8.468;2023-02-07T09:17:13;7.80;48.90
10538;DHT22;5317;49.048;8.468;2023-02-07T09:19:41;7.90;48.40
10538;DHT22;5317;49.048;8.468;2023-02-07T09:22:08;7.90;48.10
10538;DHT22;5317;49.048;8.468;2023-02-07T09:24:35;8.00;48.20
10538;DHT22;5317;49.048;8.468;2023-02-07T09:27:02;8.10;48.30
10538;DHT22;5317;49.048;8.468;2023-02-07T09:29:29;8.20;48.00
10538;DHT22;5317;49.048;8.468;2023-02-07T09:31:56;8.30;48.10
10538;DHT22;5317;49.048;8.468;2023-02-07T09:34:23;8.40;48.00
10538;DHT22;5317;49.048;8.468;2023-02-07T09:36:52;8.50;47.40
10538;DHT22;5317;49.048;8.468;2023-02-07T09:39:19;8.50;47.10
10538;DHT22;5317;49.048;8.468;2023-02-07T09:41:53;8.60;47.20
10538;DHT22;5317;49.048;8.468;2023-02-07T09:44:27;8.70;47.20
10538;DHT22;5317;49.048;8.468;2023-02-07T09:47:01;8.80;47.30
10538;DHT22;5317;49.048;8.468;2023-02-07T09:49:34;8.90;46.80
10538;DHT22;5317;49.048;8.468;2023-02-07T09:52:08;9.00;46.70
10538;DHT22;5317;49.048;8.468;2023-02-07T09:54:38;9.10;47.20
10538;DHT22;5317;49.048;8.468;2023-02-07T10:00:28;9.20;45.50
10538;DHT22;5317;49.048;8.468;2023-02-07T10:02:57;9.20;45.90
10538;DHT22;5317;49.048;8.468;2023-02-07T10:05:32;9.30;45.70
10538;DHT22;5317;49.048;8.468;2023-02-07T10:08:04;9.40;45.30
10538;DHT22;5317;49.048;8.468;2023-02-07T10:10:35;9.40;45.10
10538;DHT22;5317;49.048;8.468;2023-02-07T10:16:02;9.60;44.90
10538;DHT22;5317;49.048;8.468;2023-02-07T10:18:40;9.70;44.70
10538;DHT22;5317;49.048;8.468;2023-02-07T10:21:16;9.80;44.60
10538;DHT22;5317;49.048;8.468;2023-02-07T10:26:47;10.00;43.30
10538;DHT22;5317;49.048;8.468;2023-02-07T10:29:35;10.00;43.10
10538;DHT22;5317;49.048;8.468;2023-02-07T10:32:12;10.10;43.10
10538;DHT22;5317;49.048;8.468;2023-02-07T10:34:44;10.30;43.30
10538;DHT22;5317;49.048;8.468;2023-02-07T10:37:18;10.30;43.60
10538;DHT22;5317;49.048;8.468;2023-02-07T10:39:50;10.50;42.90
10538;DHT22;5317;49.048;8.468;2023-02-07T10:42:18;10.40;42.20
10538;DHT22;5317;49.048;8.468;2023-02-07T10:44:46;10.50;42.50
10538;DHT22;5317;49.048;8.468;2023-02-07T10:47:14;10.50;42.20
10538;DHT22;5317;49.048;8.468;2023-02-07T10:49:43;10.60;42.30
10538;DHT22;5317;49.048;8.468;2023-02-07T10:55:04;10.70;41.80
10538;DHT22;5317;49.048;8.468;2023-02-07T10:57:32;10.80;41.90
10538;DHT22;5317;49.048;8.468;2023-02-07T11:00:03;10.80;41.60
10538;DHT22;5317;49.048;8.468;2023-02-07T11:02:49;10.90;41.80
10538;DHT22;5317;49.048;8.468;2023-02-07T11:05:50;11.00;41.80
10538;DHT22;5317;49.048;8.468;2023-02-07T11:08:21;11.20;41.50
10538;DHT22;5317;49.048;8.468;2023-02-07T11:10:51;11.30;42.10
10538;DHT22;5317;49.048;8.468;2023-02-07T11:13:20;11.40;41.90
10538;DHT22;5317;49.048;8.468;2023-02-07T11:15:54;11.50;41.70
10538;DHT22;5317;49.048;8.468;2023-02-07T11:18:36;11.60;41.60
10538;DHT22;5317;49.048;8.468;2023-02-07T11:21:07;11.60;40.60
10538;DHT22;5317;49.048;8.468;2023-02-07T11:23:46;11.70;40.80
10538;DHT22;5317;49.048;8.468;2023-02-07T11:26:15;11.70;40.70
10538;DHT22;5317;49.048;8.468;2023-02-07T11:28:43;11.80;40.90
10538;DHT22;5317;49.048;8.468;2023-02-07T11:31:12;11.80;40.80
10538;DHT22;5317;49.048;8.468;2023-02-07T11:33:43;11.90;40.60
10538;DHT22;5317;49.048;8.468;2023-02-07T11:36:18;12.00;40.80
10538;DHT22;5317;49.048;8.468;2023-02-07T11:38:48;12.20;40.70
10538;DHT22;5317;49.048;8.468;2023-02-07T11:41:19;12.30;40.40
10538;DHT22;5317;49.048;8.468;2023-02-07T11:43:56;12.40;40.20
10538;DHT22;5317;49.048;8.468;2023-02-07T11:46:32;12.40;40.10
10538;DHT22;5317;49.048;8.468;2023-02-07T11:49:03;12.60;40.10
10538;DHT22;5317;49.048;8.468;2023-02-07T11:51:31;12.60;39.70
10538;DHT22;5317;49.048;8.468;2023-02-07T11:54:00;12.80;39.80
10538;DHT22;5317;49.048;8.468;2023-02-07T11:56:32;12.80;39.80
10538;DHT22;5317;49.048;8.468;2023-02-07T11:59:03;12.90;39.20
10538;DHT22;5317;49.048;8.468;2023-02-07T12:01:32;13.00;39.20
10538;DHT22;5317;49.048;8.468;2023-02-07T12:04:06;13.00;39.10
10538;DHT22;5317;49.048;8.468;2023-02-07T12:06:40;13.10;38.80
10538;DHT22;5317;49.048;8.468;2023-02-07T12:09:19;13.20;38.90
10538;DHT22;5317;49.048;8.468;2023-02-07T12:11:50;13.30;38.30
10538;DHT22;5317;49.048;8.468;2023-02-07T12:14:25;13.40;38.40
10538;DHT22;5317;49.048;8.468;2023-02-07T12:16:55;13.40;38.10
10538;DHT22;5317;49.048;8.468;2023-02-07T12:19:28;13.40;38.30
10538;DHT22;5317;49.048;8.468;2023-02-07T12:22:01;13.40;38.00
10538;DHT22;5317;49.048;8.468;2023-02-07T12:24:34;13.50;38.40
10538;DHT22;5317;49.048;8.468;2023-02-07T12:27:10;13.70;38.70
10538;DHT22;5317;49.048;8.468;2023-02-07T12:29:48;13.90;38.80
10538;DHT22;5317;49.048;8.468;2023-02-07T12:32:26;14.00;37.70
10538;DHT22;5317;49.048;8.468;2023-02-07T12:34:59;14.10;37.60
10538;DHT22;5317;49.048;8.468;2023-02-07T12:37:35;14.20;37.70
10538;DHT22;5317;49.048;8.468;2023-02-07T12:40:30;14.30;37.70
10538;DHT22;5317;49.048;8.468;2023-02-07T12:43:04;14.60;37.10
10538;DHT22;5317;49.048;8.468;2023-02-07T12:45:48;14.80;37.40
10538;DHT22;5317;49.048;8.468;2023-02-07T12:48:26;14.90;37.10
10538;DHT22;5317;49.048;8.468;2023-02-07T12:51:25;15.20;37.00
10538;DHT22;5317;49.048;8.468;2023-02-07T12:54:04;15.60;36.00
10538;DHT22;5317;49.048;8.468;2023-02-07T12:56:50;15.80;35.60
10538;DHT22;5317;49.048;8.468;2023-02-07T13:00:15;16.10;35.00
10538;DHT22;5317;49.048;8.468;2023-02-07T13:02:41;16.40;34.80
10538;DHT22;5317;49.048;8.468;2023-02-07T13:05:36;16.80;34.50
10538;DHT22;5317;49.048;8.468;2023-02-07T13:08:28;17.20;33.80
10538;DHT22;5317;49.048;8.468;2023-02-07T13:11:07;17.70;34.20
10538;DHT22;5317;49.048;8.468;2023-02-07T13:14:01;18.30;33.50
10538;DHT22;5317;49.048;8.468;2023-02-07T13:16:45;19.00;32.50
10538;DHT22;5317;49.048;8.468;2023-02-07T13:19:22;19.70;31.90
10538;DHT22;5317;49.048;8.468;2023-02-07T13:21:55;20.60;31.20
10538;DHT22;5317;49.048;8.468;2023-02-07T13:24:26;21.70;31.10
10538;DHT22;5317;49.048;8.468;2023-02-07T13:26:57;23.00;30.20
10538;DHT22;5317;49.048;8.468;2023-02-07T13:29:26;24.50;29.50
10538;DHT22;5317;49.048;8.468;2023-02-07T13:31:58;26.30;28.30
10538;DHT22;5317;49.048;8.468;2023-02-07T13:34:28;28.10;27.00
10538;DHT22;5317;49.048;8.468;2023-02-07T13:36:56;29.70;25.70
10538;DHT22;5317;49.048;8.468;2023-02-07T13:39:36;31.20;24.70
10538;DHT22;5317;49.048;8.468;2023-02-07T13:42:14;32.50;22.60
10538;DHT22;5317;49.048;8.468;2023-02-07T13:44:50;33.90;22.10
10538;DHT22;5317;49.048;8.468;2023-02-07T13:47:35;34.90;21.30
10538;DHT22;5317;49.048;8.468;2023-02-07T13:50:14;35.90;19.40
10538;DHT22;5317;49.048;8.468;2023-02-07T13:52:47;36.60;19.30
10538;DHT22;5317;49.048;8.468;2023-02-07T13:55:23;37.10;19.30
10538;DHT22;5317;49.048;8.468;2023-02-07T13:57:52;37.60;18.60
10538;DHT22;5317;49.048;8.468;2023-02-07T14:00:58;37.90;18.90
10538;DHT22;5317;49.048;8.468;2023-02-07T14:03:29;38.40;17.30
10538;DHT22;5317;49.048;8.468;2023-02-07T14:06:14;38.80;18.00
10538;DHT22;5317;49.048;8.468;2023-02-07T14:08:42;39.10;16.50
10538;DHT22;5317;49.048;8.468;2023-02-07T14:11:26;39.20;17.70
10538;DHT22;5317;49.048;8.468;2023-02-07T14:14:03;39.50;16.70
10538;DHT22;5317;49.048;8.468;2023-02-07T14:16:46;39.60;16.50
10538;DHT22;5317;49.048;8.468;2023-02-07T14:19:15;39.60;16.00
10538;DHT22;5317;49.048;8.468;2023-02-07T14:22:13;39.60;16.90
10538;DHT22;5317;49.048;8.468;2023-02-07T14:24:47;39.50;16.00
10538;DHT22;5317;49.048;8.468;2023-02-07T14:27:26;39.60;16.10
10538;DHT22;5317;49.048;8.468;2023-02-07T14:30:08;39.50;15.50
10538;DHT22;5317;49.048;8.468;2023-02-07T14:32:41;39.50;16.40
10538;DHT22;5317;49.048;8.468;2023-02-07T14:35:30;39.50;16.30
10538;DHT22;5317;49.048;8.468;2023-02-07T14:38:01;39.20;15.20
10538;DHT22;5317;49.048;8.468;2023-02-07T14:40:33;39.00;15.90
10538;DHT22;5317;49.048;8.468;2023-02-07T14:43:02;38.90;15.90
10538;DHT22;5317;49.048;8.468;2023-02-07T14:45:33;38.70;16.10
10538;DHT22;5317;49.048;8.468;2023-02-07T14:48:00;38.50;16.10
10538;DHT22;5317;49.048;8.468;2023-02-07T14:50:30;38.40;16.20
10538;DHT22;5317;49.048;8.468;2023-02-07T14:52:59;38.20;15.90
10538;DHT22;5317;49.048;8.468;2023-02-07T14:55:31;37.90;16.00
10538;DHT22;5317;49.048;8.468;2023-02-07T14:58:02;37.70;16.00
10538;DHT22;5317;49.048;8.468;2023-02-07T15:00:33;37.40;15.90
10538;DHT22;5317;49.048;8.468;2023-02-07T15:03:09;37.20;16.60
10538;DHT22;5317;49.048;8.468;2023-02-07T15:05:47;37.00;16.30
10538;DHT22;5317;49.048;8.468;2023-02-07T15:08:17;36.50;15.70
10538;DHT22;5317;49.048;8.468;2023-02-07T15:10:52;35.90;16.40
10538;DHT22;5317;49.048;8.468;2023-02-07T15:13:23;35.00;16.50
10538;DHT22;5317;49.048;8.468;2023-02-07T15:15:53;33.70;16.70
10538;DHT22;5317;49.048;8.468;2023-02-07T15:18:22;32.10;17.00
10538;DHT22;5317;49.048;8.468;2023-02-07T15:20:53;30.10;17.70
10538;DHT22;5317;49.048;8.468;2023-02-07T15:23:21;28.10;18.50
10538;DHT22;5317;49.048;8.468;2023-02-07T15:25:48;26.30;19.40
10538;DHT22;5317;49.048;8.468;2023-02-07T15:28:19;25.00;20.10
10538;DHT22;5317;49.048;8.468;2023-02-07T15:30:58;23.70;20.70
10538;DHT22;5317;49.048;8.468;2023-02-07T15:33:27;22.50;21.20
10538;DHT22;5317;49.048;8.468;2023-02-07T15:35:55;21.50;22.20
10538;DHT22;5317;49.048;8.468;2023-02-07T15:38:23;20.60;22.10
10538;DHT22;5317;49.048;8.468;2023-02-07T15:40:51;19.80;22.60
10538;DHT22;5317;49.048;8.468;2023-02-07T15:43:25;19.10;23.00
10538;DHT22;5317;49.048;8.468;2023-02-07T15:46:05;18.50;23.20
10538;DHT22;5317;49.048;8.468;2023-02-07T15:48:33;18.00;23.90
10538;DHT22;5317;49.048;8.468;2023-02-07T15:51:12;17.40;24.40
10538;DHT22;5317;49.048;8.468;2023-02-07T15:53:40;16.80;24.80
10538;DHT22;5317;49.048;8.468;2023-02-07T15:56:07;16.20;25.40
10538;DHT22;5317;49.048;8.468;2023-02-07T15:58:36;15.80;25.30
10538;DHT22;5317;49.048;8.468;2023-02-07T16:01:05;15.30;25.90
10538;DHT22;5317;49.048;8.468;2023-02-07T16:03:35;14.90;26.20
10538;DHT22;5317;49.048;8.468;2023-02-07T16:06:08;14.70;26.40
10538;DHT22;5317;49.048;8.468;2023-02-07T16:08:39;14.40;26.60
10538;DHT22;5317;49.048;8.468;2023-02-07T16:11:15;14.10;27.00
10538;DHT22;5317;49.048;8.468;2023-02-07T16:13:43;13.90;27.40
10538;DHT22;5317;49.048;8.468;2023-02-07T16:16:17;13.60;27.40
10538;DHT22;5317;49.048;8.468;2023-02-07T16:18:45;13.50;27.70
10538;DHT22;5317;49.048;8.468;2023-02-07T16:21:17;13.30;27.70
10538;DHT22;5317;49.048;8.468;2023-02-07T16:23:47;13.10;27.90
10538;DHT22;5317;49.048;8.468;2023-02-07T16:26:18;13.00;28.10
10538;DHT22;5317;49.048;8.468;2023-02-07T16:28:46;12.80;28.40
10538;DHT22;5317;49.048;8.468;2023-02-07T16:31:13;12.60;28.60
10538;DHT22;5317;49.048;8.468;2023-02-07T16:33:40;12.60;28.80
10538;DHT22;5317;49.048;8.468;2023-02-07T16:36:12;12.40;29.00
10538;DHT22;5317;49.048;8.468;2023-02-07T16:38:40;12.30;29.20